Home > Products > Valid Products > TAF

000
FTUS43 KICT 221700
TAFRSL
TAF
KRSL 221731Z 2218/2318 VRB06KT P6SM SCT100
     FM222200 16011KT P6SM VCTS BKN100CB
     FM230600 19014KT P6SM SCT100
     FM231500 19015G21KT P6SM SCT100=



000
FTUS43 KICT 221700
TAFCNU
TAF
KCNU 221731Z 2218/2318 19014G20KT P6SM FEW100
     FM230100 18011KT P6SM FEW100
     FM231500 19013G19KT P6SM FEW100=



000
FTUS43 KICT 221700
TAFSLN
TAF
KSLN 221731Z 2218/2318 20011KT P6SM VCTS BKN100CB
     FM222000 19012KT P6SM SCT100
     FM231500 19015G21KT P6SM SCT100=



000
FTUS43 KICT 221700
TAFHUT
TAF
KHUT 221731Z 2218/2318 20014KT P6SM VCTS BKN100CB
     FM222000 19014G20KT P6SM SCT100
     FM230100 18012KT P6SM SCT100
     FM231500 19015G21KT P6SM SCT100=



000
FTUS43 KICT 221700
TAFICT
TAF
KICT 221731Z 2218/2318 19014G20KT P6SM SCT100
     FM230100 18012KT P6SM SCT100
     FM231500 19015G21KT P6SM SCT100=



000
FTUS43 KICT 221700 AAA
TAFHUT
TAF AMD
KHUT 221701Z 2217/2312 20014KT P6SM VCTS BKN100CB=



000
FTUS43 KICT 221700 AAA
TAFSLN
TAF AMD
KSLN 221700Z 2217/2312 20010KT P6SM VCTS BKN100CB=



000
FTUS43 KICT 221400 AAA
TAFCNU
TAF AMD
KCNU 221404Z 2214/2312 20014G20KT P6SM SKC
     FM230000 17008KT P6SM SKC=



000
FTUS43 KICT 221400 AAA
TAFRSL
TAF AMD
KRSL 221402Z 2214/2312 VRB06KT P6SM VCTS SCT120CB
     FM221600 VRB06KT P6SM SCT120
     FM222000 20011KT P6SM SCT120
     FM230600 17010KT P6SM VCTS SCT100CB BKN250=



000
FTUS43 KICT 221100
TAFCNU
TAF
KCNU 221138Z 2212/2312 16010KT P6SM SKC
     FM221600 20012KT P6SM FEW050
     FM230000 17008KT P6SM SKC=



000
FTUS43 KICT 221100
TAFHUT
TAF
KHUT 221138Z 2212/2312 17010KT P6SM SCT100 BKN250
     FM221600 19015G22KT P6SM SCT070
     FM230000 17010KT P6SM SCT130=



000
FTUS43 KICT 221100
TAFSLN
TAF
KSLN 221138Z 2212/2312 17010KT P6SM VCTS BKN110CB
      TEMPO 2212/2213 6SM TSRA SCT060 BKN110CB
     FM221400 18010KT P6SM SCT070 BKN250=



000
FTUS43 KICT 221100
TAFICT
TAF
KICT 221138Z 2212/2312 17012KT P6SM FEW100 BKN250
     FM221600 19015G22KT P6SM SCT070
     FM230000 18012KT P6SM SCT130=



000
FTUS43 KICT 221100
TAFRSL
TAF
KRSL 221138Z 2212/2312 18007KT P6SM SCT100 BKN250
     FM221400 18010KT P6SM SCT120
     FM230600 17010KT P6SM VCTS SCT100CB BKN250=



000
FTUS43 KICT 221000 AAA
TAFSLN
TAF AMD
KSLN 221054Z 2211/2306 16012KT P6SM VCTS BKN110CB
      TEMPO 2211/2213 6SM TSRA SCT060 BKN110CB
     FM221500 18015G22KT P6SM BKN120
     FM230100 17011KT P6SM SCT120=



000
FTUS43 KICT 220500
TAFSLN
TAF
KSLN 220522Z 2206/2306 16012KT P6SM VCTS BKN110CB
     FM220900 VRB04KT P6SM VCTS OVC100CB
     FM221500 18015G22KT P6SM BKN120
     FM230100 17011KT P6SM SCT120=



000
FTUS43 KICT 220500
TAFRSL
TAF
KRSL 220522Z 2206/2306 VRB04KT P6SM VCTS OVC090CB
     FM221400 19012KT P6SM SCT120=



000
FTUS43 KICT 220500
TAFHUT
TAF
KHUT 220522Z 2206/2306 17013KT P6SM SCT130
     FM221600 19016G23KT P6SM FEW060 BKN130
     FM230100 18011KT P6SM SCT130=



000
FTUS43 KICT 220500
TAFICT
TAF
KICT 220522Z 2206/2306 17013KT P6SM SCT130
     FM221600 19016G23KT P6SM FEW060 BKN130
     FM230100 18011KT P6SM SCT130=



000
FTUS43 KICT 220500
TAFCNU
TAF
KCNU 220522Z 2206/2306 17012KT P6SM SKC
     FM221600 19013KT P6SM FEW050 SCT130
     FM230000 17008KT P6SM SKC=



000
FTUS43 KICT 220300 AAB
TAFRSL
TAF AMD
KRSL 220304Z 2203/2224 18011KT P6SM VCTS BKN100CB
     FM220600 VRB03KT P6SM VCTS OVC090CB
     FM221600 19012KT P6SM SCT120=



000
FTUS43 KICT 220100 AAA
TAFRSL
TAF AMD
KRSL 220158Z 2202/2224 18010KT P6SM VCTS BKN100CB
      TEMPO 2202/2205 VRB15G35KT 4SM TSRA BKN025 OVC050CB
     FM220500 VRB03KT P6SM VCTS OVC090CB
     FM221600 19012KT P6SM SCT120=



000
FTUS43 KICT 212300
TAFCNU
TAF
KCNU 212337Z 2200/2224 17009KT P6SM SKC
     FM221600 19013KT P6SM FEW050 SCT130=



000
FTUS43 KICT 212300
TAFSLN
TAF
KSLN 212337Z 2200/2224 18016G23KT P6SM SCT120
     FM220300 18013KT P6SM VCTS BKN120CB=



000
FTUS43 KICT 212300
TAFHUT
TAF
KHUT 212337Z 2200/2224 17018G25KT P6SM FEW130
     FM220300 16013KT P6SM SCT130
     FM221600 18016G23KT P6SM FEW060 BKN130=



000
FTUS43 KICT 212300
TAFICT
TAF
KICT 212337Z 2200/2224 17019G26KT P6SM FEW130
     FM220300 16013KT P6SM SCT130
     FM221600 18016G23KT P6SM FEW060 BKN130=



000
FTUS43 KICT 212300
TAFRSL
TAF
KRSL 212337Z 2200/2224 18016G23KT P6SM VCTS BKN100CB
     FM220300 19012KT P6SM VCTS BKN100CB
     FM220500 VRB03KT P6SM VCTS OVC090CB
     FM221600 19012KT P6SM SCT120=



000
FTUS43 KICT 211700
TAFCNU
TAF
KCNU 211725Z 2118/2218 19017G23KT P6SM SKC
     FM220000 18011KT P6SM SCT150=



000
FTUS43 KICT 211700
TAFICT
TAF
KICT 211725Z 2118/2218 19018G24KT P6SM SKC
     FM220100 17015KT P6SM SCT130=



000
FTUS43 KICT 211700
TAFRSL
TAF
KRSL 211725Z 2118/2218 21018G24KT P6SM SKC
     FM220000 19014KT P6SM VCTS BKN050CB
     FM220400 19014KT P6SM SCT130=



000
FTUS43 KICT 211700
TAFSLN
TAF
KSLN 211725Z 2118/2218 20019G27KT P6SM SKC
     FM220100 19014KT P6SM VCTS SCT050CB
     FM220500 19013KT P6SM SCT130=



000
FTUS43 KICT 211700
TAFHUT
TAF
KHUT 211725Z 2118/2218 20018G24KT P6SM SKC
     FM220100 17012KT P6SM VCSH SCT050
     FM220500 17012KT P6SM SCT130=



000
FTUS43 KICT 211100
TAFICT
TAF
KICT 211120Z 2112/2212 18014KT P6SM SCT250
     FM211500 19022G30KT P6SM FEW060 SCT250
     FM220100 17015KT P6SM SCT130=



000
FTUS43 KICT 211100
TAFSLN
TAF
KSLN 211120Z 2112/2212 19013KT P6SM FEW100 SCT250
     FM211500 20019G27KT P6SM FEW060 SCT250
     FM220100 18014G20KT P6SM SCT120
     FM220800 19013KT P6SM VCTS BKN100CB=



000
FTUS43 KICT 211100
TAFRSL
TAF
KRSL 211120Z 2112/2212 19016G23KT P6SM SCT100 BKN150
     FM211500 20015G22KT P6SM FEW060 SCT250
     FM220200 18014KT P6SM VCTS BKN100CB=



000
FTUS43 KICT 211100
TAFHUT
TAF
KHUT 211120Z 2112/2212 18013KT P6SM SCT250
     FM211500 19020G29KT P6SM FEW060 SCT250
     FM220100 17012KT P6SM SCT130=



000
FTUS43 KICT 211100
TAFCNU
TAF
KCNU 211120Z 2112/2212 18011KT P6SM SKC
     FM211500 19017G26KT P6SM FEW050 SCT250
     FM220000 18011KT P6SM SCT150=



000
FTUS43 KICT 210500
TAFCNU
TAF
KCNU 210522Z 2106/2206 18011KT P6SM SKC
     FM211500 19018G26KT P6SM FEW050 SCT250
     FM220000 18011KT P6SM SCT150=



000
FTUS43 KICT 210500
TAFHUT
TAF
KHUT 210522Z 2106/2206 18014G20KT P6SM SCT250
     FM211500 19020G29KT P6SM FEW060 SCT250
     FM220100 17014G20KT P6SM SCT130=



000
FTUS43 KICT 210500
TAFRSL
TAF
KRSL 210522Z 2106/2206 18016G23KT P6SM SCT100 BKN250
     FM211500 20018G26KT P6SM FEW060 SCT250
     FM220100 18014G20KT P6SM VCTS BKN100CB=



000
FTUS43 KICT 210500
TAFICT
TAF
KICT 210522Z 2106/2206 18014G20KT P6SM SCT250
     FM211500 19022G30KT P6SM FEW060 SCT250
     FM220100 17015G22KT P6SM SCT130=



000
FTUS43 KICT 210500
TAFSLN
TAF
KSLN 210522Z 2106/2206 18015G22KT P6SM FEW100 SCT250
     FM211500 20019G27KT P6SM FEW060 SCT250
     FM220100 18014G20KT P6SM SCT120=



000
FTUS43 KICT 202300
TAFHUT
TAF
KHUT 202337Z 2100/2124 17014G20KT P6SM SCT250
     FM211500 19020G29KT P6SM FEW060 SCT250=



000
FTUS43 KICT 202300
TAFRSL
TAF
KRSL 202337Z 2100/2124 17016G23KT P6SM SCT100 BKN250
     FM211500 20018G26KT P6SM FEW060 SCT250=



000
FTUS43 KICT 202300
TAFCNU
TAF
KCNU 202337Z 2100/2124 17011KT P6SM SKC
     FM211500 19018G26KT P6SM FEW050 SCT250=



000
FTUS43 KICT 202300
TAFSLN
TAF
KSLN 202337Z 2100/2124 17015G22KT P6SM SCT100 BKN250
     FM211500 20019G27KT P6SM FEW060 SCT250=



000
FTUS43 KICT 202300
TAFICT
TAF
KICT 202337Z 2100/2124 17014G20KT P6SM SCT250
     FM211500 19022G30KT P6SM FEW060 SCT250=



000
FTUS43 KICT 201700
TAFCNU
TAF
KCNU 201720Z 2018/2118 19016G23KT P6SM SCT050
     FM202000 19018G25KT P6SM VCTS SCT050CB BKN100
     FM210200 17011KT P6SM SCT200
     FM211500 19022G32KT P6SM SCT050=



000
FTUS43 KICT 201700
TAFICT
TAF
KICT 201720Z 2018/2118 19018G28KT P6SM FEW050 SCT250
     FM210200 17016KT P6SM SKC
     FM211500 20023G33KT P6SM SCT050=



000
FTUS43 KICT 201700
TAFSLN
TAF
KSLN 201720Z 2018/2118 18018G28KT P6SM FEW080 SCT250
     FM210200 17016KT P6SM SKC
     FM211500 20023G33KT P6SM SCT050=



000
FTUS43 KICT 201700
TAFRSL
TAF
KRSL 201720Z 2018/2118 19016G30KT P6SM FEW070 SCT250
     FM210200 18018G24KT P6SM SCT120
     FM210300 17014KT P6SM VCTS SCT050CB BKN250
     FM211000 20017G25KT P6SM BKN250
     FM211500 21025G35KT P6SM SCT050=



000
FTUS43 KICT 201700
TAFHUT
TAF
KHUT 201720Z 2018/2118 19018G26KT P6SM FEW070 SCT250
     FM210200 17015KT P6SM SCT250
     FM211500 20024G34KT P6SM SCT050=



000
FTUS43 KICT 201200 AAA
TAFCNU
TAF AMD
KCNU 201236Z 2013/2112 18007KT P6SM SCT250
     FM201500 19016G23KT P6SM SCT250
     FM202000 19018G25KT P6SM VCTS SCT060CB BKN100
     FM210100 17011KT P6SM SCT200=



000
FTUS43 KICT 201100
TAFRSL
TAF
KRSL 201120Z 2012/2112 19014G22KT P6SM SCT200
     FM201600 19021G30KT P6SM FEW090 SCT250
     FM210200 18018G24KT P6SM SCT150=



000
FTUS43 KICT 201100
TAFHUT
TAF
KHUT 201120Z 2012/2112 18009KT P6SM SKC
     FM201600 19018G26KT P6SM FEW070 SCT250
     FM210200 17015KT P6SM SCT250=



000
FTUS43 KICT 201100
TAFICT
TAF
KICT 201120Z 2012/2112 17010KT P6SM SCT250
     FM201500 19014KT P6SM SCT250
     FM201800 19018G28KT P6SM FEW070 SCT250
     FM210200 17016KT P6SM SKC=



000
FTUS43 KICT 201100
TAFCNU
TAF
KCNU 201120Z 2012/2112 17005KT P6SM SCT250
      TEMPO 2012/2013 4SM BR
     FM201500 19016G23KT P6SM SCT250
     FM202000 19018G25KT P6SM VCTS SCT060CB BKN100
     FM210100 17011KT P6SM SCT200=



000
FTUS43 KICT 201100
TAFSLN
TAF
KSLN 201120Z 2012/2112 19010KT P6SM SCT250
     FM201600 18018G28KT P6SM FEW080 SCT250
     FM210200 17017KT P6SM SCT250=



000
FTUS43 KICT 200700 AAA
TAFRSL
TAF AMD
KRSL 200706Z 2007/2106 18014G20KT P6SM SCT110 BKN250
     FM201500 19020G29KT P6SM SCT250=



000
FTUS43 KICT 200500
TAFCNU
TAF
KCNU 200522Z 2006/2106 17008KT P6SM SCT250
     FM201500 19016G23KT P6SM SCT250
     FM210000 18010KT P6SM SCT250=



000
FTUS43 KICT 200500
TAFICT
TAF
KICT 200522Z 2006/2106 17010KT P6SM SCT250
     FM201500 19018G26KT P6SM SCT250=



000
FTUS43 KICT 200500
TAFHUT
TAF
KHUT 200522Z 2006/2106 17009KT P6SM SCT250
     FM201500 19018G26KT P6SM SCT250=



000
FTUS43 KICT 200500
TAFRSL
TAF
KRSL 200522Z 2006/2106 17012KT P6SM SCT110 BKN250
     FM201500 19020G29KT P6SM SCT250=



000
FTUS43 KICT 200500
TAFSLN
TAF
KSLN 200522Z 2006/2106 16009KT P6SM SCT250
     FM201500 18017G25KT P6SM SCT250=



000
FTUS43 KICT 192300
TAFRSL
TAF
KRSL 192322Z 2000/2024 17013KT P6SM FEW120 SCT250
     FM201500 19020G29KT P6SM SCT250=



000
FTUS43 KICT 192300
TAFSLN
TAF
KSLN 192322Z 2000/2024 16009KT P6SM SCT250
     FM201500 18017G25KT P6SM SCT250=



000
FTUS43 KICT 192300
TAFICT
TAF
KICT 192322Z 2000/2024 17010KT P6SM SCT250
     FM201500 19018G26KT P6SM SCT250=



000
FTUS43 KICT 192300
TAFCNU
TAF
KCNU 192322Z 2000/2024 17008KT P6SM SCT250
     FM201500 19016G23KT P6SM SCT250=



000
FTUS43 KICT 192300
TAFHUT
TAF
KHUT 192322Z 2000/2024 17010KT P6SM SCT250
     FM201500 19018G26KT P6SM SCT250=



    US Dept of Commerce
    National Oceanic and Atmospheric Administration
    National Weather Service
    1325 East West Highway
    Silver Spring, MD 20910
    Page Author: NWS Internet Services Team
Disclaimer
Information Quality
Credits
Glossary
Privacy Policy
Freedom of Information Act (FOIA)
About Us
Career Opportunities